createdAt,value
2019-03-06T00:02:11.239Z,4.25
2019-03-06T00:04:40.838Z,4.47
2019-03-06T00:07:10.331Z,4.50
2019-03-06T00:09:39.919Z,4.60
2019-03-06T00:12:10.393Z,4.75
2019-03-06T00:14:40.190Z,4.92
2019-03-06T00:17:09.716Z,4.80
2019-03-06T00:19:39.226Z,5.50
2019-03-06T00:22:08.738Z,4.70
2019-03-06T00:24:38.357Z,4.67
2019-03-06T00:27:07.934Z,4.75
2019-03-06T00:29:37.447Z,5.30
2019-03-06T00:32:06.949Z,4.50
2019-03-06T00:34:36.460Z,4.97
2019-03-06T00:37:05.963Z,4.05
2019-03-06T00:39:43.438Z,4.60
2019-03-06T00:42:12.941Z,4.70
2019-03-06T00:44:42.453Z,3.92
2019-03-06T00:47:11.949Z,4.30
2019-03-06T00:49:41.464Z,4.47
2019-03-06T00:52:10.963Z,4.45
2019-03-06T00:54:40.464Z,4.55
2019-03-06T00:57:09.952Z,4.40
2019-03-06T00:59:39.488Z,4.60
2019-03-06T01:02:08.988Z,4.15
2019-03-06T01:04:38.498Z,4.15
2019-03-06T01:07:08.015Z,4.80
2019-03-06T01:09:37.604Z,5.12
2019-03-06T01:12:08.742Z,4.42
2019-03-06T01:14:38.259Z,4.95
2019-03-06T01:17:07.756Z,5.53
2019-03-06T01:19:37.272Z,5.10
2019-03-06T01:22:06.786Z,5.10
2019-03-06T01:24:36.578Z,4.83
2019-03-06T01:27:06.089Z,4.90
2019-03-06T01:29:35.593Z,4.95
2019-03-06T01:32:05.179Z,4.90
2019-03-06T01:34:46.076Z,5.23
2019-03-06T01:37:40.427Z,4.90
2019-03-06T01:40:17.196Z,5.10
2019-03-06T01:42:54.142Z,5.25
2019-03-06T01:45:23.727Z,5.25
2019-03-06T01:47:53.223Z,5.20
2019-03-06T01:50:22.726Z,5.20
2019-03-06T01:52:52.323Z,5.60
2019-03-06T01:55:21.850Z,5.55
2019-03-06T01:57:51.354Z,5.58
2019-03-06T02:00:21.229Z,5.80
2019-03-06T02:02:50.735Z,5.40
2019-03-06T02:05:20.249Z,5.67
2019-03-06T02:07:49.756Z,6.67
2019-03-06T02:10:19.547Z,5.97
2019-03-06T02:12:49.061Z,6.00
2019-03-06T02:15:19.029Z,5.85
2019-03-06T02:17:48.535Z,5.60
2019-03-06T02:20:18.372Z,5.75
2019-03-06T02:22:47.874Z,5.75
2019-03-06T02:25:18.434Z,6.22
2019-03-06T02:27:47.961Z,5.78
2019-03-06T02:30:19.767Z,5.33
2019-03-06T02:32:49.274Z,6.30
2019-03-06T02:35:18.864Z,5.20
2019-03-06T02:37:48.379Z,5.70
2019-03-06T02:40:18.929Z,5.80
2019-03-06T02:42:48.438Z,6.10
2019-03-06T02:45:18.036Z,5.37
2019-03-06T02:47:47.538Z,5.70
2019-03-06T02:50:17.131Z,6.33
2019-03-06T02:52:46.736Z,5.87
2019-03-06T02:55:16.431Z,5.37
2019-03-06T02:58:00.160Z,6.90
2019-03-06T03:00:46.145Z,6.30
2019-03-06T03:03:23.158Z,5.92
2019-03-06T03:06:00.464Z,6.22
2019-03-06T03:08:30.250Z,6.08
2019-03-06T03:10:59.762Z,6.12
2019-03-06T03:13:29.276Z,6.28
2019-03-06T03:15:58.789Z,5.97
2019-03-06T03:18:28.308Z,6.10
2019-03-06T03:20:58.110Z,5.72
2019-03-06T03:23:27.607Z,5.90
2019-03-06T03:25:57.116Z,6.30
2019-03-06T03:28:26.624Z,6.20
2019-03-06T03:30:56.136Z,6.03
2019-03-06T03:33:25.822Z,6.03
2019-03-06T03:35:55.337Z,6.50
2019-03-06T03:38:24.856Z,6.35
2019-03-06T03:40:54.355Z,6.28
2019-03-06T03:43:23.879Z,6.40
2019-03-06T03:45:53.593Z,5.97
2019-03-06T03:48:23.101Z,6.30
2019-03-06T03:50:52.595Z,6.20
2019-03-06T03:53:23.298Z,6.40
2019-03-06T03:55:52.814Z,6.90
2019-03-06T03:58:22.568Z,6.50
2019-03-06T04:00:52.144Z,6.40
2019-03-06T04:03:21.835Z,6.50
2019-03-06T04:05:51.341Z,7.20
2019-03-06T04:08:20.859Z,6.75
2019-03-06T04:10:50.540Z,6.15
2019-03-06T04:13:20.062Z,6.00
2019-03-06T04:15:49.570Z,6.53
2019-03-06T04:18:19.072Z,6.80
2019-03-06T04:20:48.707Z,6.00
2019-03-06T04:23:18.496Z,6.50
2019-03-06T04:25:48.022Z,7.20
2019-03-06T04:28:17.545Z,6.73
2019-03-06T04:30:47.136Z,6.70
2019-03-06T04:33:16.661Z,7.20
2019-03-06T04:35:46.270Z,6.57
2019-03-06T04:38:15.821Z,7.30
2019-03-06T04:40:45.327Z,7.40
2019-03-06T04:43:14.839Z,7.60
2019-03-06T04:45:44.335Z,7.33
2019-03-06T04:48:14.026Z,8.40
2019-03-06T04:50:43.532Z,8.03
2019-03-06T04:53:13.103Z,8.30
2019-03-06T04:55:42.627Z,8.80
2019-03-06T04:58:12.156Z,8.33
2019-03-06T05:00:41.677Z,8.70
2019-03-06T05:03:11.213Z,9.00
2019-03-06T05:05:40.945Z,9.38
2019-03-06T05:08:10.482Z,8.60
2019-03-06T05:10:39.991Z,8.73
2019-03-06T05:13:09.516Z,8.70
2019-03-06T05:15:39.044Z,9.00
2019-03-06T05:18:14.964Z,8.97
2019-03-06T05:20:44.508Z,8.23
2019-03-06T05:23:14.319Z,9.00
2019-03-06T05:25:43.824Z,9.00
2019-03-06T05:28:13.343Z,9.63
2019-03-06T05:30:42.906Z,9.83
2019-03-06T05:33:13.281Z,9.13
2019-03-06T05:36:09.211Z,8.60
2019-03-06T05:38:43.287Z,9.80
2019-03-06T05:41:12.912Z,9.97
2019-03-06T05:43:42.460Z,9.50
2019-03-06T05:46:11.969Z,9.80
2019-03-06T05:48:41.483Z,10.15
2019-03-06T05:51:11.053Z,11.23
2019-03-06T05:53:40.761Z,11.43
2019-03-06T05:56:10.269Z,11.08
2019-03-06T05:58:39.871Z,11.60
2019-03-06T06:01:09.402Z,12.30
2019-03-06T06:03:38.946Z,12.10
2019-03-06T06:06:08.473Z,13.30
2019-03-06T06:08:38.256Z,12.58
2019-03-06T06:11:07.779Z,14.10
2019-03-06T06:13:37.341Z,13.68
2019-03-06T06:16:06.852Z,12.87
2019-03-06T06:18:36.373Z,14.60
2019-03-06T06:21:23.868Z,14.33
2019-03-06T06:23:58.243Z,15.23
2019-03-06T06:26:27.844Z,15.60
2019-03-06T06:28:57.380Z,15.90
2019-03-06T06:31:26.920Z,16.23
2019-03-06T06:33:56.459Z,16.33
2019-03-06T06:36:25.984Z,16.10
2019-03-06T06:38:55.514Z,17.73
2019-03-06T06:41:25.034Z,16.97
2019-03-06T06:43:54.563Z,18.00
2019-03-06T06:46:24.085Z,18.80
2019-03-06T06:48:53.783Z,19.80
2019-03-06T06:52:10.190Z,18.67
2019-03-06T06:54:52.109Z,20.37
2019-03-06T06:57:47.620Z,21.13
2019-03-06T07:01:17.481Z,19.20
2019-03-06T07:04:27.567Z,21.77
2019-03-06T07:07:12.253Z,20.67
2019-03-06T07:10:04.003Z,20.25
2019-03-06T07:12:42.803Z,22.15
2019-03-06T07:15:26.222Z,21.50
2019-03-06T07:18:04.467Z,23.35
2019-03-06T07:20:43.596Z,22.23
2019-03-06T07:23:19.537Z,23.43
2019-03-06T07:26:20.401Z,22.17
2019-03-06T07:28:56.238Z,22.17
2019-03-06T07:31:56.931Z,22.75
2019-03-06T07:35:03.614Z,23.13
2019-03-06T07:37:44.104Z,22.58
2019-03-06T07:40:20.321Z,22.00
2019-03-06T07:43:11.710Z,21.17
2019-03-06T07:45:49.677Z,22.52
2019-03-06T07:48:28.004Z,22.00
2019-03-06T07:51:05.104Z,21.33
2019-03-06T07:53:51.703Z,21.35
2019-03-06T07:56:28.481Z,21.80
2019-03-06T07:58:58.707Z,22.10
2019-03-06T08:01:30.656Z,23.00
2019-03-06T08:04:03.135Z,22.73
2019-03-06T08:06:32.666Z,21.47
2019-03-06T08:09:02.184Z,21.60
2019-03-06T08:11:58.697Z,20.92
2019-03-06T08:14:44.748Z,20.60
2019-03-06T08:17:25.855Z,19.85
2019-03-06T08:20:13.074Z,19.37
2019-03-06T08:23:10.762Z,20.35
2019-03-06T08:25:46.337Z,20.10
2019-03-06T08:28:15.878Z,19.20
2019-03-06T08:30:55.020Z,19.63
2019-03-06T08:33:24.719Z,19.43
2019-03-06T08:35:54.356Z,18.00
2019-03-06T08:38:23.884Z,16.37
2019-03-06T08:40:53.391Z,16.87
2019-03-06T08:43:22.906Z,16.60
2019-03-06T08:46:01.528Z,15.95
2019-03-06T08:48:37.650Z,15.95
2019-03-06T08:51:13.692Z,15.65
2019-03-06T08:54:02.426Z,15.90
2019-03-06T08:56:49.942Z,15.13
2019-03-06T08:59:38.390Z,15.15
2019-03-06T09:02:16.430Z,14.93
2019-03-06T09:05:05.663Z,13.32
2019-03-06T09:07:45.141Z,13.93
2019-03-06T09:10:34.265Z,13.00
2019-03-06T09:13:21.597Z,12.70
2019-03-06T09:16:05.779Z,12.98
2019-03-06T09:18:45.111Z,11.65
2019-03-06T09:21:23.597Z,12.25
2019-03-06T09:24:22.494Z,12.45
2019-03-06T09:27:04.221Z,12.10
2019-03-06T09:29:42.515Z,12.40
2019-03-06T09:32:22.445Z,12.23
2019-03-06T09:35:01.503Z,12.18
2019-03-06T09:37:49.981Z,10.82
2019-03-06T09:40:35.635Z,10.90
2019-03-06T09:43:36.306Z,9.87
2019-03-06T09:46:16.729Z,10.48
2019-03-06T09:49:11.506Z,10.05
2019-03-06T09:52:02.549Z,9.28
2019-03-06T09:54:46.986Z,7.85
2019-03-06T09:57:34.256Z,8.45
2019-03-06T10:00:10.883Z,7.75
2019-03-06T10:02:58.231Z,7.75
2019-03-06T10:05:37.851Z,7.30
2019-03-06T10:08:16.719Z,6.92
2019-03-06T10:11:20.083Z,7.35
2019-03-06T10:14:07.942Z,7.60
2019-03-06T10:16:48.919Z,7.20
2019-03-06T10:19:38.980Z,6.75
2019-03-06T10:22:08.573Z,6.40
2019-03-06T10:24:38.084Z,6.27
2019-03-06T10:27:07.595Z,6.67
2019-03-06T10:29:37.390Z,7.20
2019-03-06T10:32:06.988Z,6.53
2019-03-06T10:34:36.585Z,6.87
2019-03-06T10:39:35.765Z,5.90
2019-03-06T10:42:05.454Z,5.78
2019-03-06T10:44:36.135Z,6.50
2019-03-06T10:47:05.741Z,5.97
2019-03-06T10:49:35.554Z,5.70
2019-03-06T10:52:06.212Z,6.20
2019-03-06T10:54:44.308Z,5.87
2019-03-06T10:57:07.474Z,5.80
2019-03-06T10:59:37.180Z,4.90
2019-03-06T11:02:06.774Z,5.20
2019-03-06T11:04:57.189Z,4.28
2019-03-06T11:07:26.741Z,4.90
2019-03-06T11:09:56.355Z,4.72
2019-03-06T11:12:25.929Z,4.25
2019-03-06T11:14:55.448Z,4.10
2019-03-06T11:17:24.948Z,4.30
2019-03-06T11:19:54.823Z,4.70
2019-03-06T11:22:24.380Z,4.40
2019-03-06T11:24:53.977Z,3.80
2019-03-06T11:27:23.581Z,3.80
2019-03-06T11:29:53.115Z,4.07
2019-03-06T11:32:22.623Z,3.67
2019-03-06T11:34:52.140Z,3.45
2019-03-06T11:37:21.798Z,3.60
2019-03-06T11:39:51.312Z,3.27
2019-03-06T11:42:20.844Z,3.20
2019-03-06T11:44:50.373Z,3.10
2019-03-06T11:47:20.128Z,3.07
2019-03-06T11:49:49.656Z,2.80
2019-03-06T11:52:19.410Z,3.08
2019-03-06T11:54:48.948Z,3.60
2019-03-06T11:57:18.549Z,3.20
2019-03-06T11:59:48.176Z,3.35
2019-03-06T12:02:18.072Z,3.20
2019-03-06T12:04:47.591Z,2.70
2019-03-06T12:07:17.202Z,3.40
2019-03-06T12:09:46.736Z,3.33
2019-03-06T12:12:16.255Z,2.90
2019-03-06T12:14:45.786Z,3.27
2019-03-06T12:17:15.740Z,2.83
2019-03-06T12:19:45.251Z,3.00
2019-03-06T12:22:14.936Z,3.00
2019-03-06T12:24:44.471Z,3.05
2019-03-06T12:27:14.329Z,3.20
2019-03-06T12:29:43.842Z,2.60
2019-03-06T12:32:13.536Z,2.70
2019-03-06T12:34:43.043Z,3.08
2019-03-06T12:37:12.685Z,2.80
2019-03-06T12:39:42.315Z,3.47
2019-03-06T12:42:14.788Z,2.85
2019-03-06T12:44:43.055Z,2.53
2019-03-06T12:47:12.662Z,2.70
2019-03-06T12:49:42.178Z,2.30
2019-03-06T12:52:11.785Z,2.20
2019-03-06T12:54:41.288Z,3.07
2019-03-06T12:57:10.791Z,2.70
2019-03-06T12:59:40.291Z,2.57
2019-03-06T13:02:09.833Z,2.70
2019-03-06T13:04:41.190Z,2.75
2019-03-06T13:07:10.655Z,2.60
2019-03-06T13:09:40.169Z,2.30
2019-03-06T13:12:09.764Z,2.70
2019-03-06T13:14:39.347Z,2.80
2019-03-06T13:17:08.939Z,2.30
2019-03-06T13:19:38.461Z,2.60
2019-03-06T13:22:11.033Z,2.75
2019-03-06T13:24:39.318Z,2.33
2019-03-06T13:27:08.932Z,2.30
2019-03-06T13:29:38.453Z,2.10
2019-03-06T13:32:11.678Z,2.60
2019-03-06T13:34:52.792Z,2.30
2019-03-06T13:37:22.428Z,2.40
2019-03-06T13:39:52.042Z,2.10
2019-03-06T13:42:22.647Z,2.63
2019-03-06T13:44:52.270Z,2.00
2019-03-06T13:47:21.785Z,2.20
2019-03-06T13:49:51.330Z,2.30
2019-03-06T13:52:20.844Z,2.20
2019-03-06T13:54:50.436Z,2.37
2019-03-06T13:57:19.947Z,2.43
2019-03-06T13:59:49.505Z,2.30
2019-03-06T14:02:19.109Z,2.20
2019-03-06T14:04:49.008Z,2.50
2019-03-06T14:07:18.650Z,1.93
2019-03-06T14:09:48.263Z,2.20
2019-03-06T14:12:17.780Z,2.42
2019-03-06T14:14:47.361Z,2.10
2019-03-06T14:17:16.876Z,2.60
2019-03-06T14:19:46.842Z,2.13
2019-03-06T14:22:16.363Z,2.20
2019-03-06T14:24:45.914Z,2.43
2019-03-06T14:27:15.445Z,2.63
2019-03-06T14:29:44.983Z,2.40
2019-03-06T14:32:15.150Z,2.22
2019-03-06T14:34:44.823Z,2.10
2019-03-06T14:37:15.375Z,2.20
2019-03-06T14:39:44.893Z,1.90
2019-03-06T14:42:14.381Z,2.20
2019-03-06T14:44:43.895Z,2.05
2019-03-06T14:47:13.990Z,2.30
2019-03-06T14:49:43.513Z,2.33
2019-03-06T14:52:13.155Z,2.00
2019-03-06T14:54:42.726Z,2.23
2019-03-06T14:57:12.247Z,2.00
2019-03-06T14:59:41.780Z,2.20
2019-03-06T15:02:11.459Z,2.33
2019-03-06T15:04:40.968Z,2.10
2019-03-06T15:07:10.489Z,2.12
2019-03-06T15:09:40.034Z,1.90
2019-03-06T15:12:09.619Z,2.25
2019-03-06T15:14:39.174Z,2.10
2019-03-06T15:17:08.694Z,2.10
2019-03-06T15:19:39.278Z,2.12
2019-03-06T15:22:08.968Z,2.02
2019-03-06T15:24:41.551Z,2.20
2019-03-06T15:27:09.807Z,1.80
2019-03-06T15:29:39.613Z,1.85
2019-03-06T15:32:09.279Z,2.20
2019-03-06T15:34:38.805Z,2.30
2019-03-06T15:37:08.472Z,2.33
2019-03-06T15:39:46.683Z,2.47
2019-03-06T15:42:13.967Z,2.27
2019-03-06T15:44:43.501Z,2.00
2019-03-06T15:47:13.062Z,2.03
2019-03-06T15:49:42.568Z,1.90
2019-03-06T15:52:12.267Z,2.10
2019-03-06T15:54:41.895Z,2.10
2019-03-06T15:57:11.471Z,2.33
2019-03-06T15:59:40.981Z,2.42
2019-03-06T16:02:10.860Z,2.00
2019-03-06T16:04:40.444Z,2.08
2019-03-06T16:07:10.007Z,1.92
2019-03-06T16:09:39.863Z,2.15
2019-03-06T16:12:09.441Z,2.40
2019-03-06T16:14:38.962Z,2.77
2019-03-06T16:17:08.477Z,2.50
2019-03-06T16:19:38.059Z,2.12
2019-03-06T16:22:07.567Z,1.87
2019-03-06T16:24:37.754Z,1.80
2019-03-06T16:27:07.269Z,2.13
2019-03-06T16:29:36.781Z,2.10
2019-03-06T16:32:06.287Z,1.90
2019-03-06T16:34:35.799Z,1.87
2019-03-06T16:37:05.559Z,1.80
2019-03-06T16:39:35.065Z,2.00
2019-03-06T16:42:04.638Z,2.42
2019-03-06T16:44:35.195Z,1.90
2019-03-06T16:47:06.939Z,2.30
2019-03-06T16:49:36.284Z,2.00
2019-03-06T16:52:05.874Z,2.20
2019-03-06T16:54:35.471Z,1.72
2019-03-06T16:57:04.976Z,1.80
2019-03-06T16:59:34.479Z,2.27
2019-03-06T17:02:04.280Z,2.50
2019-03-06T17:04:34.057Z,2.12
2019-03-06T17:07:03.711Z,1.90
2019-03-06T17:09:33.291Z,2.20
2019-03-06T17:12:03.062Z,2.15
2019-03-06T17:14:32.573Z,2.25
2019-03-06T17:17:02.130Z,2.10
2019-03-06T17:19:31.672Z,2.00
2019-03-06T17:22:01.202Z,2.20
2019-03-06T17:24:30.840Z,2.30
2019-03-06T17:27:00.346Z,2.20
2019-03-06T17:29:29.875Z,2.20
2019-03-06T17:31:59.743Z,2.00
2019-03-06T17:34:29.384Z,1.70
2019-03-06T17:37:01.289Z,1.90
2019-03-06T17:39:31.243Z,1.80
2019-03-06T17:42:00.773Z,1.43
2019-03-06T17:44:30.349Z,2.00
2019-03-06T17:46:59.997Z,1.60
2019-03-06T17:49:29.502Z,1.60
2019-03-06T17:51:59.036Z,1.90
2019-03-06T17:54:28.640Z,1.60
2019-03-06T17:56:58.181Z,1.60
2019-03-06T17:59:27.975Z,2.30
2019-03-06T18:01:57.563Z,1.50
2019-03-06T18:04:28.356Z,2.02
2019-03-06T18:06:57.887Z,1.73
2019-03-06T18:09:27.676Z,1.33
2019-03-06T18:11:57.230Z,1.60
2019-03-06T18:14:26.762Z,1.37
2019-03-06T18:16:56.332Z,1.73
2019-03-06T18:19:25.845Z,1.83
2019-03-06T18:21:55.471Z,1.90
2019-03-06T18:24:24.995Z,1.30
2019-03-06T18:26:54.703Z,1.73
2019-03-06T18:29:24.311Z,1.40
2019-03-06T18:31:53.851Z,1.60
2019-03-06T18:34:23.412Z,1.50
2019-03-06T18:36:53.372Z,1.60
2019-03-06T18:39:22.909Z,1.40
2019-03-06T18:41:52.708Z,1.30
2019-03-06T18:44:22.238Z,1.40
2019-03-06T18:46:51.891Z,1.40
2019-03-06T18:49:21.511Z,1.33
2019-03-06T18:51:51.016Z,1.50
2019-03-06T18:54:20.560Z,1.30
2019-03-06T18:56:51.524Z,1.77
2019-03-06T18:59:21.050Z,1.52
2019-03-06T19:01:50.603Z,1.67
2019-03-06T19:04:20.132Z,1.70
2019-03-06T19:06:49.718Z,1.75
2019-03-06T19:09:19.897Z,1.50
2019-03-06T19:11:49.523Z,1.30
2019-03-06T19:14:19.066Z,1.50
2019-03-06T19:16:48.676Z,1.60
2019-03-06T19:19:18.190Z,1.70
2019-03-06T19:21:47.831Z,1.40
2019-03-06T19:24:17.361Z,1.82
2019-03-06T19:26:46.925Z,1.70
2019-03-06T19:29:16.442Z,1.50
2019-03-06T19:31:46.012Z,1.60
2019-03-06T19:34:15.620Z,1.50
2019-03-06T19:36:46.270Z,1.78
2019-03-06T19:39:16.079Z,1.82
2019-03-06T19:41:45.604Z,1.60
2019-03-06T19:44:15.137Z,1.90
2019-03-06T19:46:44.671Z,1.40
2019-03-06T19:49:14.171Z,2.00
2019-03-06T19:51:51.290Z,1.90
2019-03-06T19:54:15.030Z,1.40
2019-03-06T19:56:44.568Z,1.72
2019-03-06T19:59:14.079Z,1.50
2019-03-06T20:01:43.635Z,1.60
2019-03-06T20:04:13.166Z,1.23
2019-03-06T20:06:43.744Z,1.70
2019-03-06T20:09:24.320Z,1.70
2019-03-06T20:11:53.925Z,1.90
2019-03-06T20:14:23.533Z,1.80
2019-03-06T20:16:53.489Z,1.43
2019-03-06T20:19:23.015Z,1.80
2019-03-06T20:21:52.824Z,2.13
2019-03-06T20:24:22.419Z,1.60
2019-03-06T20:26:51.952Z,2.10
2019-03-06T20:29:21.544Z,1.92
2019-03-06T20:31:51.137Z,1.70
2019-03-06T20:34:20.736Z,1.75
2019-03-06T20:36:50.512Z,1.70
2019-03-06T20:39:20.049Z,2.10
2019-03-06T20:41:49.580Z,1.60
2019-03-06T20:44:19.130Z,1.55
2019-03-06T20:46:48.788Z,1.80
2019-03-06T20:49:18.314Z,1.72
2019-03-06T20:51:48.128Z,1.70
2019-03-06T20:54:17.652Z,1.90
2019-03-06T20:56:47.191Z,1.50
2019-03-06T20:59:16.715Z,1.80
2019-03-06T21:01:46.387Z,1.87
2019-03-06T21:04:16.924Z,1.98
2019-03-06T21:06:46.775Z,1.75
2019-03-06T21:09:17.100Z,1.50
2019-03-06T21:11:46.916Z,1.60
2019-03-06T21:14:16.557Z,1.72
2019-03-06T21:16:46.128Z,1.60
2019-03-06T21:19:15.632Z,1.80
2019-03-06T21:21:45.157Z,1.60
2019-03-06T21:24:14.699Z,1.80
2019-03-06T21:26:45.357Z,1.77
2019-03-06T21:29:14.897Z,2.10
2019-03-06T21:31:44.453Z,1.50
2019-03-06T21:34:15.105Z,1.90
2019-03-06T21:36:45.636Z,1.87
2019-03-06T21:39:25.031Z,2.00
2019-03-06T21:41:54.571Z,1.55
2019-03-06T21:44:24.099Z,1.60
2019-03-06T21:46:53.691Z,1.60
2019-03-06T21:49:24.209Z,1.60
2019-03-06T21:51:54.744Z,1.77
2019-03-06T21:54:24.439Z,1.70
2019-03-06T21:56:54.050Z,1.90
2019-03-06T21:59:23.581Z,1.70
2019-03-06T22:01:53.127Z,1.90
2019-03-06T22:04:22.648Z,2.17
2019-03-06T22:06:52.176Z,1.70
2019-03-06T22:09:21.714Z,2.10
2019-03-06T22:11:51.490Z,1.90
2019-03-06T22:14:21.265Z,2.00
2019-03-06T22:16:50.813Z,2.00
2019-03-06T22:19:20.354Z,1.98
2019-03-06T22:21:50.043Z,2.00
2019-03-06T22:24:19.554Z,2.00
2019-03-06T22:26:49.080Z,1.87
2019-03-06T22:29:18.600Z,1.90
2019-03-06T22:31:48.095Z,2.00
2019-03-06T22:34:17.634Z,2.05
2019-03-06T22:36:47.151Z,2.20
2019-03-06T22:39:16.683Z,2.40
2019-03-06T22:41:46.203Z,2.10
2019-03-06T22:44:15.716Z,2.30
2019-03-06T22:46:46.508Z,2.00
2019-03-06T22:49:16.040Z,2.10
2019-03-06T22:51:45.727Z,2.40
2019-03-06T22:54:15.270Z,2.35
2019-03-06T22:56:44.758Z,2.80
2019-03-06T22:59:14.277Z,2.37
2019-03-06T23:01:43.859Z,2.58
2019-03-06T23:04:13.376Z,2.40
2019-03-06T23:06:42.870Z,2.70
2019-03-06T23:09:12.660Z,2.50
2019-03-06T23:11:42.342Z,2.60
2019-03-06T23:14:11.857Z,2.90
2019-03-06T23:16:41.369Z,2.90
2019-03-06T23:19:10.890Z,2.50
2019-03-06T23:21:40.382Z,2.90
2019-03-06T23:24:09.975Z,2.83
2019-03-06T23:26:42.793Z,2.90
2019-03-06T23:29:10.718Z,3.10
2019-03-06T23:31:40.570Z,2.95
2019-03-06T23:34:10.403Z,3.10
2019-03-06T23:36:39.928Z,2.90
2019-03-06T23:39:12.566Z,3.30
2019-03-06T23:41:42.173Z,2.70
2019-03-06T23:44:11.799Z,3.22
2019-03-06T23:46:41.311Z,3.15
2019-03-06T23:49:10.819Z,2.95
2019-03-06T23:51:45.981Z,3.30
2019-03-06T23:54:15.576Z,3.62
2019-03-06T23:56:45.083Z,3.40
2019-03-06T23:59:14.594Z,3.22
